Time;durP1;ratioP1;P1;durP2;ratioP2;P2;SDS_P1;SDS_P2;PMS_P1;PMS_P2;Temp;Humidity;BMP_temperature;BMP_pressure;BME280_temperature;BME280_humidity;BME280_pressure;Samples;Min_cycle;Max_cycle;Signal;HPM_P1;HPM_P2
2021/12/09 00:00:16;;;;;;;18.40;13.97;;;2.10;99.90;;;;;;5064364;28;20052;-72
2021/12/09 00:02:43;;;;;;;17.13;12.60;;;2.00;99.90;;;;;;5064040;28;20047;-72
2021/12/09 00:05:12;;;;;;;16.47;13.07;;;2.00;99.90;;;;;;5055230;28;20503;-72
2021/12/09 00:07:38;;;;;;;18.67;14.90;;;2.10;99.90;;;;;;5082170;28;20089;-72
2021/12/09 00:10:08;;;;;;;17.80;13.30;;;2.00;99.90;;;;;;5066035;28;20048;-72
2021/12/09 00:12:34;;;;;;;17.58;14.25;;;2.00;99.90;;;;;;5065738;28;20044;-72
2021/12/09 00:15:00;;;;;;;23.63;14.87;;;2.00;99.90;;;;;;5065157;28;20060;-72
2021/12/09 00:17:26;;;;;;;18.57;14.40;;;1.90;99.90;;;;;;5045708;28;20474;-73
2021/12/09 00:19:51;;;;;;;18.37;15.13;;;1.90;99.90;;;;;;5045612;28;20788;-72
2021/12/09 00:22:17;;;;;;;19.93;15.73;;;1.90;99.90;;;;;;5029032;28;20314;-72
2021/12/09 00:24:43;;;;;;;17.67;14.30;;;1.90;99.90;;;;;;5045491;28;20529;-73
2021/12/09 00:27:09;;;;;;;19.77;16.23;;;1.80;99.90;;;;;;5045499;28;20127;-72
2021/12/09 00:29:35;;;;;;;23.53;16.20;;;1.90;99.90;;;;;;5065250;28;20040;-73
2021/12/09 00:32:02;;;;;;;18.00;15.37;;;1.80;99.90;;;;;;5065182;28;20071;-72
2021/12/09 00:34:33;;;;;;;18.37;14.70;;;1.80;99.90;;;;;;5074077;28;20040;-73
2021/12/09 00:39:51;;;;;;;19.63;15.32;;;1.80;99.90;;;;;;5083444;28;20063;-73
2021/12/09 00:42:23;;;;;;;22.77;16.87;;;1.70;99.90;;;;;;5082699;28;20171;-72
2021/12/09 00:44:50;;;;;;;20.80;16.60;;;1.70;99.90;;;;;;5066692;28;20063;-72
2021/12/09 00:47:16;;;;;;;19.63;17.20;;;1.80;99.90;;;;;;5066390;28;20084;-72
2021/12/09 00:49:42;;;;;;;23.77;18.13;;;1.70;99.90;;;;;;5049570;28;20525;-72
2021/12/09 00:52:08;;;;;;;22.17;17.23;;;1.70;99.90;;;;;;5066511;28;20137;-72
2021/12/09 00:54:34;;;;;;;19.60;16.40;;;1.60;99.90;;;;;;5065848;28;20087;-73
2021/12/09 00:57:01;;;;;;;21.50;17.23;;;1.60;99.90;;;;;;5066252;28;20052;-73
2021/12/09 00:59:26;;;;;;;23.17;19.40;;;1.60;99.90;;;;;;5065827;28;20040;-72
2021/12/09 01:01:53;;;;;;;20.47;18.20;;;1.60;99.90;;;;;;5033190;28;20678;-72
2021/12/09 01:04:19;;;;;;;23.97;19.87;;;1.60;99.90;;;;;;5044476;28;20609;-73
2021/12/09 01:06:44;;;;;;;24.80;20.03;;;1.60;99.90;;;;;;5049398;28;20072;-72
2021/12/09 01:09:10;;;;;;;23.77;19.80;;;1.60;99.90;;;;;;5044910;28;20056;-72
2021/12/09 01:11:36;;;;;;;24.37;19.07;;;1.80;99.90;;;;;;5044551;28;20076;-73
2021/12/09 01:14:02;;;;;;;22.20;18.87;;;1.60;99.90;;;;;;5052847;28;20052;-73
2021/12/09 01:16:31;;;;;;;24.63;18.77;;;1.70;99.90;;;;;;5080404;28;20048;-72
2021/12/09 01:18:57;;;;;;;25.27;18.53;;;1.70;99.90;;;;;;5081217;28;20089;-72
2021/12/09 01:21:26;;;;;;;20.33;17.67;;;1.60;99.90;;;;;;5069685;28;20403;-72
2021/12/09 01:23:52;;;;;;;22.67;19.07;;;1.70;99.90;;;;;;5057927;28;20068;-73
2021/12/09 01:26:18;;;;;;;24.20;19.20;;;1.70;99.90;;;;;;5063067;28;20098;-72
2021/12/09 01:28:52;;;;;;;23.77;18.70;;;1.70;99.90;;;;;;5083516;28;20070;-73
2021/12/09 01:31:25;;;;;;;22.00;18.47;;;1.70;99.90;;;;;;5053301;28;20063;-73
2021/12/09 01:33:52;;;;;;;21.83;17.87;;;1.90;99.90;;;;;;5060536;28;20052;-73
2021/12/09 01:36:22;;;;;;;20.13;17.60;;;1.70;99.90;;;;;;5049371;28;21055;-73
2021/12/09 01:38:48;;;;;;;22.60;18.87;;;1.80;99.90;;;;;;5046767;28;20135;-73
2021/12/09 01:41:14;;;;;;;20.70;18.43;;;1.80;99.90;;;;;;5031861;28;20649;-73
2021/12/09 01:43:40;;;;;;;23.57;19.63;;;1.80;99.90;;;;;;5065433;28;20044;-73
2021/12/09 01:46:07;;;;;;;21.07;16.60;;;1.70;99.90;;;;;;5070466;28;20414;-72
2021/12/09 01:48:33;;;;;;;22.17;17.80;;;1.80;99.90;;;;;;5062882;28;20446;-72
2021/12/09 01:51:02;;;;;;;24.47;18.23;;;1.90;99.90;;;;;;5070767;28;20040;-73
2021/12/09 01:53:29;;;;;;;23.67;18.73;;;1.90;99.90;;;;;;5063491;28;20044;-73
2021/12/09 01:55:58;;;;;;;23.37;18.23;;;1.80;99.90;;;;;;5079413;28;20935;-73
2021/12/09 01:58:24;;;;;;;22.45;19.65;;;1.80;99.90;;;;;;5063691;28;20044;-73
2021/12/09 02:00:50;;;;;;;23.10;18.13;;;1.80;99.90;;;;;;5058425;28;20495;-73
2021/12/09 02:03:16;;;;;;;23.87;18.83;;;1.80;99.90;;;;;;5052387;28;20245;-73
2021/12/09 02:05:42;;;;;;;23.00;18.07;;;1.80;99.90;;;;;;5061907;28;20044;-73
2021/12/09 02:08:11;;;;;;;23.07;19.50;;;1.90;99.90;;;;;;5062825;28;20078;-74
2021/12/09 02:10:39;;;;;;;26.17;19.03;;;1.80;99.90;;;;;;5074416;28;20039;-73
2021/12/09 02:13:05;;;;;;;21.50;19.03;;;1.70;99.90;;;;;;5074141;28;20538;-73
2021/12/09 02:15:31;;;;;;;23.13;19.87;;;1.70;99.90;;;;;;5044135;28;20110;-73
2021/12/09 02:17:57;;;;;;;23.43;19.87;;;1.70;99.90;;;;;;5072921;28;20127;-73
2021/12/09 02:20:33;;;;;;;23.77;20.47;;;1.70;99.90;;;;;;5066017;28;20110;-73
2021/12/09 02:23:00;;;;;;;23.67;20.03;;;1.60;99.90;;;;;;5069264;28;20070;-74
2021/12/09 02:25:31;;;;;;;25.50;20.80;;;1.60;99.90;;;;;;5072892;28;20044;-73
2021/12/09 02:27:57;;;;;;;25.47;21.20;;;1.60;99.90;;;;;;5047704;28;20065;-72
2021/12/09 02:30:23;;;;;;;24.33;20.33;;;1.60;99.90;;;;;;5058229;28;20665;-73
2021/12/09 02:32:49;;;;;;;23.67;20.10;;;1.60;99.90;;;;;;5062903;28;20044;-73
2021/12/09 02:35:15;;;;;;;25.60;22.90;;;1.50;99.90;;;;;;5052358;28;20099;-72
2021/12/09 02:37:42;;;;;;;25.07;20.30;;;1.60;99.90;;;;;;5041906;28;20048;-73
2021/12/09 02:40:09;;;;;;;29.60;22.37;;;1.50;99.90;;;;;;5054159;28;20072;-72
2021/12/09 02:42:36;;;;;;;24.53;21.90;;;1.50;99.90;;;;;;5046258;28;20052;-72
2021/12/09 02:45:04;;;;;;;26.07;22.47;;;1.50;99.90;;;;;;5071185;28;20045;-72
2021/12/09 02:47:31;;;;;;;25.77;22.87;;;1.50;99.90;;;;;;5045849;28;20039;-72
2021/12/09 02:49:56;;;;;;;29.53;23.37;;;1.40;99.90;;;;;;5068799;28;20083;-72
2021/12/09 02:52:25;;;;;;;31.03;23.97;;;1.40;99.90;;;;;;5063510;28;20079;-73
2021/12/09 02:54:51;;;;;;;28.23;23.80;;;1.40;99.90;;;;;;5065756;28;20056;-73
2021/12/09 02:57:18;;;;;;;29.33;24.83;;;1.40;99.90;;;;;;5066648;28;20491;-72
2021/12/09 02:59:44;;;;;;;29.77;25.33;;;1.40;99.90;;;;;;5066653;28;20067;-72
2021/12/09 03:02:11;;;;;;;28.23;25.30;;;1.40;99.90;;;;;;5048633;28;20071;-72
2021/12/09 03:04:48;;;;;;;26.90;23.53;;;1.30;99.90;;;;;;5063046;28;20043;-73
2021/12/09 03:07:15;;;;;;;28.23;25.17;;;1.40;99.90;;;;;;5065200;28;20040;-73
2021/12/09 03:09:49;;;;;;;26.90;23.77;;;1.40;99.90;;;;;;5047467;28;20051;-73
2021/12/09 03:12:24;;;;;;;28.60;25.70;;;1.40;99.90;;;;;;5065116;28;20122;-73
2021/12/09 03:14:50;;;;;;;28.47;25.47;;;1.40;99.90;;;;;;5063840;28;20487;-73
2021/12/09 03:17:17;;;;;;;28.10;25.07;;;1.30;99.90;;;;;;5066493;28;20048;-73
2021/12/09 03:19:42;;;;;;;34.57;26.70;;;1.40;99.90;;;;;;5068697;28;20047;-73
2021/12/09 03:22:09;;;;;;;30.70;25.97;;;1.30;99.90;;;;;;5063032;28;20115;-73
2021/12/09 03:24:38;;;;;;;32.47;27.13;;;1.30;99.90;;;;;;5063690;28;20618;-73
2021/12/09 03:27:04;;;;;;;33.43;27.17;;;1.30;99.90;;;;;;5065434;28;20080;-73
2021/12/09 03:29:31;;;;;;;32.60;29.13;;;1.30;99.90;;;;;;5054362;28;20444;-73
2021/12/09 03:32:00;;;;;;;34.93;28.53;;;1.30;99.90;;;;;;5066945;28;20044;-72
2021/12/09 03:34:29;;;;;;;28.83;25.83;;;1.40;99.90;;;;;;5073817;28;20048;-73
2021/12/09 03:36:57;;;;;;;30.50;27.30;;;1.30;99.90;;;;;;5047822;28;20067;-72
2021/12/09 03:39:27;;;;;;;32.47;28.37;;;1.30;99.90;;;;;;5064357;28;20076;-72
2021/12/09 03:41:55;;;;;;;30.85;27.17;;;1.30;99.90;;;;;;5047109;28;20044;-72
2021/12/09 03:44:22;;;;;;;31.70;28.40;;;1.30;99.90;;;;;;5063933;28;20091;-72
2021/12/09 03:46:50;;;;;;;33.00;28.50;;;1.20;99.90;;;;;;5063446;28;20118;-72
2021/12/09 03:49:16;;;;;;;33.77;28.70;;;1.30;99.90;;;;;;5064724;28;20098;-72
2021/12/09 03:51:42;;;;;;;31.23;27.90;;;1.30;99.90;;;;;;5053586;28;20128;-73
2021/12/09 03:54:09;;;;;;;33.17;28.10;;;1.30;99.90;;;;;;5049877;28;20574;-73
2021/12/09 03:56:37;;;;;;;33.60;29.90;;;1.30;99.90;;;;;;5048917;28;20068;-72
2021/12/09 03:59:04;;;;;;;35.53;30.10;;;1.30;99.90;;;;;;5068910;28;20058;-72
2021/12/09 04:01:31;;;;;;;37.03;32.53;;;1.30;99.90;;;;;;5060378;28;20105;-73
2021/12/09 04:03:57;;;;;;;33.20;28.93;;;1.20;99.90;;;;;;5049438;28;20090;-72
2021/12/09 04:06:23;;;;;;;36.00;32.10;;;1.20;99.90;;;;;;5049761;28;20083;-72
2021/12/09 04:08:49;;;;;;;35.97;30.90;;;1.20;99.90;;;;;;5045689;28;20370;-72
2021/12/09 04:11:17;;;;;;;34.37;30.63;;;1.20;99.90;;;;;;5068178;28;20052;-72
2021/12/09 04:13:44;;;;;;;36.93;32.87;;;1.20;99.90;;;;;;5049114;28;20090;-73
2021/12/09 04:16:10;;;;;;;32.67;28.97;;;1.20;99.90;;;;;;5049317;28;20064;-73
2021/12/09 04:18:38;;;;;;;34.80;31.20;;;1.20;99.90;;;;;;5065450;28;20049;-73
2021/12/09 04:21:05;;;;;;;38.73;33.47;;;1.20;99.90;;;;;;5066505;28;20056;-73
2021/12/09 04:23:32;;;;;;;36.97;30.23;;;1.20;99.90;;;;;;5049082;28;20135;-73
2021/12/09 04:25:58;;;;;;;36.67;30.77;;;1.20;99.90;;;;;;5049465;28;20504;-73
2021/12/09 04:28:24;;;;;;;35.13;31.33;;;1.20;99.90;;;;;;5049471;28;20049;-73
2021/12/09 04:30:51;;;;;;;35.40;31.43;;;1.10;99.90;;;;;;5062385;28;20128;-73
2021/12/09 04:33:17;;;;;;;38.97;31.77;;;1.10;99.90;;;;;;5066547;28;20198;-73
2021/12/09 04:35:43;;;;;;;36.97;32.90;;;1.10;99.90;;;;;;5065502;28;20040;-73
2021/12/09 04:38:08;;;;;;;33.23;29.67;;;1.10;99.90;;;;;;5049841;28;20048;-73
2021/12/09 04:40:34;;;;;;;41.40;36.00;;;1.00;99.90;;;;;;5049639;28;20300;-73
2021/12/09 04:43:00;;;;;;;35.00;30.83;;;1.00;99.90;;;;;;5049992;28;20048;-73
2021/12/09 04:45:28;;;;;;;37.00;33.00;;;1.00;99.90;;;;;;5049966;28;20407;-73
2021/12/09 04:47:54;;;;;;;36.77;32.53;;;1.00;99.90;;;;;;5037724;28;20183;-73
2021/12/09 04:50:20;;;;;;;36.47;32.43;;;1.00;99.90;;;;;;5067510;28;20870;-73
2021/12/09 04:52:46;;;;;;;42.40;35.90;;;0.90;99.90;;;;;;5052439;28;20052;-73
2021/12/09 04:55:12;;;;;;;40.20;33.80;;;1.00;99.90;;;;;;5073253;28;20230;-73
2021/12/09 04:57:39;;;;;;;37.63;33.63;;;1.00;99.90;;;;;;5056548;28;20159;-73
2021/12/09 05:00:08;;;;;;;39.07;34.77;;;1.00;99.90;;;;;;5075520;28;20374;-73
2021/12/09 05:05:06;;;;;;;42.40;35.63;;;1.00;99.90;;;;;;5069788;28;20309;-73
2021/12/09 05:07:32;;;;;;;40.43;36.03;;;1.00;99.90;;;;;;5052622;28;20059;-73
2021/12/09 05:09:58;;;;;;;41.33;34.03;;;1.00;99.90;;;;;;5069819;28;20048;-73
2021/12/09 05:12:27;;;;;;;43.50;35.20;;;1.00;99.90;;;;;;5037199;28;20550;-73
2021/12/09 05:14:53;;;;;;;39.73;34.13;;;1.00;99.90;;;;;;5068806;28;20498;-73
2021/12/09 05:17:19;;;;;;;38.13;33.27;;;1.00;99.90;;;;;;5052410;28;20173;-73
2021/12/09 05:19:45;;;;;;;41.70;35.60;;;1.00;99.90;;;;;;5060867;28;20063;-73
2021/12/09 05:22:12;;;;;;;38.47;33.33;;;1.10;99.90;;;;;;5056093;28;20094;-73
2021/12/09 05:24:38;;;;;;;43.77;37.43;;;1.10;99.90;;;;;;5089085;28;20502;-73
2021/12/09 05:27:06;;;;;;;42.40;35.77;;;1.10;99.90;;;;;;5089209;28;20367;-73
2021/12/09 05:29:39;;;;;;;37.70;33.23;;;1.10;99.90;;;;;;5078111;28;20075;-73
2021/12/09 05:32:13;;;;;;;38.70;33.50;;;1.10;99.90;;;;;;5071271;28;20181;-73
2021/12/09 05:34:45;;;;;;;44.33;37.10;;;1.00;99.90;;;;;;5067456;28;20055;-73
2021/12/09 05:37:17;;;;;;;39.20;33.50;;;1.00;99.90;;;;;;5052099;28;20295;-73
2021/12/09 05:39:43;;;;;;;39.97;35.27;;;1.00;99.90;;;;;;5052003;28;20113;-73
2021/12/09 05:42:11;;;;;;;45.87;36.10;;;1.00;99.90;;;;;;5068766;28;20094;-73
2021/12/09 05:44:37;;;;;;;41.27;34.93;;;1.00;99.90;;;;;;5068462;28;20190;-73
2021/12/09 05:47:08;;;;;;;42.57;34.97;;;1.00;99.90;;;;;;5068742;28;20517;-73
2021/12/09 05:49:37;;;;;;;38.93;34.30;;;1.00;99.90;;;;;;5068228;28;20144;-73
2021/12/09 05:52:06;;;;;;;44.20;35.80;;;1.00;99.90;;;;;;5068892;28;20510;-73
2021/12/09 05:54:35;;;;;;;40.07;35.73;;;1.00;99.90;;;;;;5052111;28;20810;-74
2021/12/09 05:57:02;;;;;;;46.43;36.90;;;1.00;99.90;;;;;;5068875;28;20105;-74
2021/12/09 05:59:34;;;;;;;41.07;36.77;;;1.00;99.90;;;;;;5051862;28;20673;-73
2021/12/09 06:02:00;;;;;;;41.70;34.60;;;1.00;99.90;;;;;;5075095;28;20080;-74
2021/12/09 06:04:26;;;;;;;41.50;34.40;;;1.00;99.90;;;;;;5059000;28;20086;-74
2021/12/09 06:06:52;;;;;;;44.93;35.13;;;0.90;99.90;;;;;;5064741;28;20444;-74
2021/12/09 06:09:18;;;;;;;40.90;35.00;;;0.90;99.90;;;;;;5067966;28;20131;-74
2021/12/09 06:11:46;;;;;;;39.90;35.10;;;1.00;99.90;;;;;;5079490;28;20044;-74
2021/12/09 06:14:12;;;;;;;42.83;37.63;;;0.90;99.90;;;;;;5061490;28;20105;-74
2021/12/09 06:16:38;;;;;;;46.13;38.07;;;0.90;99.90;;;;;;5059817;28;20047;-74
2021/12/09 06:19:04;;;;;;;41.73;36.50;;;0.90;99.90;;;;;;5068405;28;20036;-74
2021/12/09 06:21:30;;;;;;;43.63;34.53;;;0.80;99.90;;;;;;5067983;28;20435;-74
2021/12/09 06:24:01;;;;;;;51.37;40.60;;;0.80;99.90;;;;;;5074067;28;20075;-73
2021/12/09 06:26:30;;;;;;;46.67;38.13;;;0.80;99.90;;;;;;5050307;28;20124;-73
2021/12/09 06:28:56;;;;;;;46.70;35.80;;;0.80;99.90;;;;;;5081878;28;21385;-73
2021/12/09 06:31:22;;;;;;;49.77;38.33;;;0.80;99.90;;;;;;5051897;28;20044;-72
2021/12/09 06:33:49;;;;;;;41.13;36.77;;;0.80;99.90;;;;;;5053407;28;20718;-73
2021/12/09 06:36:18;;;;;;;47.50;37.57;;;0.70;99.90;;;;;;5054002;28;20510;-73
2021/12/09 06:38:44;;;;;;;46.67;37.20;;;0.80;99.90;;;;;;5040454;28;20395;-73
2021/12/09 06:41:10;;;;;;;50.47;37.87;;;0.70;99.90;;;;;;5072836;28;20047;-72
2021/12/09 06:43:40;;;;;;;39.97;33.90;;;0.70;99.90;;;;;;5069205;28;20056;-74
2021/12/09 06:46:09;;;;;;;41.22;35.88;;;0.70;99.90;;;;;;5069507;28;20051;-74
2021/12/09 06:48:35;;;;;;;54.20;39.90;;;0.70;99.90;;;;;;5074852;28;20048;-72
2021/12/09 06:51:02;;;;;;;56.57;42.00;;;0.70;99.90;;;;;;5078835;28;20037;-75
2021/12/09 06:53:29;;;;;;;51.20;39.50;;;0.60;99.90;;;;;;5043448;28;20032;-75
2021/12/09 06:55:55;;;;;;;42.50;35.73;;;0.60;99.90;;;;;;5067270;28;20039;-75
2021/12/09 06:58:22;;;;;;;43.83;35.23;;;0.60;99.90;;;;;;5086264;28;20048;-75
2021/12/09 07:00:49;;;;;;;51.63;38.40;;;0.60;99.90;;;;;;5075716;28;20659;-75
2021/12/09 07:03:21;;;;;;;45.83;36.73;;;0.60;99.90;;;;;;5085229;28;20044;-75
2021/12/09 07:05:50;;;;;;;49.63;39.63;;;0.60;99.90;;;;;;5080138;28;20502;-72
2021/12/09 07:08:16;;;;;;;57.95;42.03;;;0.60;99.90;;;;;;5060595;28;20060;-73
2021/12/09 07:10:43;;;;;;;48.03;37.97;;;0.50;99.90;;;;;;5081930;28;20040;-73
2021/12/09 07:13:10;;;;;;;47.90;39.37;;;0.60;99.90;;;;;;5078322;28;20123;-73
2021/12/09 07:15:39;;;;;;;46.97;38.83;;;0.60;99.90;;;;;;5042970;28;20033;-72
2021/12/09 07:18:06;;;;;;;51.03;37.97;;;0.60;99.90;;;;;;5050657;28;20266;-73
2021/12/09 07:20:32;;;;;;;48.80;38.80;;;0.60;99.90;;;;;;5055092;28;20399;-74
2021/12/09 07:22:59;;;;;;;59.53;41.13;;;0.50;99.90;;;;;;5083650;28;20047;-74
2021/12/09 07:25:27;;;;;;;45.67;37.77;;;0.60;99.90;;;;;;5065573;28;20093;-74
2021/12/09 07:27:53;;;;;;;44.90;36.63;;;0.50;99.90;;;;;;5073355;28;20562;-75
2021/12/09 07:30:21;;;;;;;44.43;36.20;;;0.50;99.90;;;;;;5073781;28;20051;-74
2021/12/09 07:32:48;;;;;;;44.83;37.23;;;0.50;99.90;;;;;;5075938;28;20543;-75
2021/12/09 07:35:16;;;;;;;44.27;37.03;;;0.50;99.90;;;;;;5070730;28;20043;-74
2021/12/09 07:37:42;;;;;;;47.27;36.63;;;0.50;99.90;;;;;;5081596;28;20055;-75
2021/12/09 07:40:13;;;;;;;47.20;37.67;;;0.50;99.90;;;;;;5072919;28;20487;-74
2021/12/09 07:42:39;;;;;;;47.30;37.77;;;0.50;99.90;;;;;;5085373;28;20487;-76
2021/12/09 07:45:06;;;;;;;50.27;39.00;;;0.50;99.90;;;;;;5067276;28;20101;-74
2021/12/09 07:47:32;;;;;;;48.03;37.77;;;0.60;99.90;;;;;;5066085;28;20040;-74
2021/12/09 07:50:01;;;;;;;48.67;39.07;;;0.60;99.90;;;;;;5066149;28;20044;-75
2021/12/09 07:52:30;;;;;;;56.57;41.60;;;0.60;99.90;;;;;;5069577;28;20479;-75
2021/12/09 07:54:55;;;;;;;46.97;38.70;;;0.60;99.90;;;;;;5073603;28;20037;-75
2021/12/09 07:57:21;;;;;;;49.83;38.60;;;0.70;99.90;;;;;;5064775;28;20135;-74
2021/12/09 07:59:47;;;;;;;48.13;37.87;;;0.70;99.90;;;;;;5070134;28;20549;-75
2021/12/09 08:02:12;;;;;;;47.40;36.77;;;0.70;99.90;;;;;;5079796;28;20052;-74
2021/12/09 08:04:39;;;;;;;45.80;37.00;;;0.70;99.90;;;;;;5086074;28;20047;-73
2021/12/09 08:07:05;;;;;;;46.83;36.20;;;0.70;99.90;;;;;;5068062;28;20040;-72
2021/12/09 08:09:31;;;;;;;50.33;38.93;;;0.70;99.90;;;;;;5064176;28;20429;-72
2021/12/09 08:11:57;;;;;;;51.60;40.03;;;0.70;99.90;;;;;;5069474;28;20086;-73
2021/12/09 08:14:22;;;;;;;48.07;38.20;;;0.70;99.90;;;;;;5081392;28;20335;-73
2021/12/09 08:17:07;;;;;;;50.57;37.27;;;0.70;99.90;;;;;;5047458;28;20352;-73
2021/12/09 08:19:34;;;;;;;43.20;35.43;;;0.80;99.90;;;;;;5054180;28;20047;-73
2021/12/09 08:21:59;;;;;;;42.33;34.53;;;0.80;99.90;;;;;;5065463;28;20044;-73
2021/12/09 08:24:26;;;;;;;45.87;36.70;;;0.70;99.90;;;;;;5072657;28;20033;-73
2021/12/09 08:26:52;;;;;;;38.80;34.03;;;0.80;99.90;;;;;;5065185;28;20463;-75
2021/12/09 08:29:18;;;;;;;45.47;35.27;;;0.80;99.90;;;;;;5055371;28;20302;-75
2021/12/09 08:31:44;;;;;;;44.00;35.50;;;0.80;99.90;;;;;;5066096;28;20834;-75
2021/12/09 08:34:10;;;;;;;46.33;34.80;;;0.90;99.90;;;;;;5066700;28;20123;-75
2021/12/09 08:36:36;;;;;;;41.30;33.93;;;0.90;99.90;;;;;;5065445;28;20036;-75
2021/12/09 08:39:03;;;;;;;42.53;33.43;;;0.90;99.90;;;;;;5073217;28;20116;-75
2021/12/09 08:41:31;;;;;;;47.87;37.10;;;0.90;99.90;;;;;;5066014;28;20419;-75
2021/12/09 08:43:57;;;;;;;42.10;34.00;;;0.90;99.90;;;;;;5063627;28;20603;-75
2021/12/09 08:46:23;;;;;;;41.47;33.07;;;1.00;99.90;;;;;;5065706;28;20044;-75
2021/12/09 08:48:49;;;;;;;38.80;30.90;;;1.00;99.90;;;;;;5081129;28;20433;-73
2021/12/09 08:51:16;;;;;;;37.27;33.37;;;1.10;99.90;;;;;;5065057;28;20085;-75
2021/12/09 08:53:42;;;;;;;36.83;31.63;;;1.00;99.90;;;;;;5063244;28;20446;-74
2021/12/09 08:56:08;;;;;;;39.13;32.90;;;1.00;99.90;;;;;;5057350;28;20460;-73
2021/12/09 08:58:33;;;;;;;35.53;29.23;;;1.10;99.90;;;;;;5066828;28;20056;-73
2021/12/09 09:01:01;;;;;;;34.07;30.47;;;1.10;99.90;;;;;;5082700;28;20070;-73
2021/12/09 09:03:27;;;;;;;35.27;30.03;;;1.20;99.90;;;;;;5048082;28;20048;-73
2021/12/09 09:05:54;;;;;;;38.93;30.53;;;1.30;99.90;;;;;;5075711;28;20071;-73
2021/12/09 09:08:20;;;;;;;36.73;29.23;;;1.30;99.90;;;;;;5049286;28;20101;-73
2021/12/09 09:10:46;;;;;;;38.63;30.90;;;1.30;99.90;;;;;;5063791;28;20453;-73
2021/12/09 09:13:13;;;;;;;38.33;30.80;;;1.30;99.90;;;;;;5052299;28;20083;-74
2021/12/09 09:15:48;;;;;;;32.57;28.07;;;1.30;99.90;;;;;;5037307;28;20032;-74
2021/12/09 09:18:14;;;;;;;40.53;32.33;;;1.30;99.90;;;;;;5073712;28;20040;-74
2021/12/09 09:20:40;;;;;;;32.77;27.07;;;1.30;99.90;;;;;;5064656;28;20122;-75
2021/12/09 09:23:11;;;;;;;32.57;27.53;;;1.40;99.90;;;;;;5077641;28;20051;-74
2021/12/09 09:25:41;;;;;;;30.80;26.67;;;1.40;99.90;;;;;;5074108;28;20414;-74
2021/12/09 09:28:07;;;;;;;32.47;27.75;;;1.50;99.90;;;;;;5039764;28;20256;-73
2021/12/09 09:30:37;;;;;;;31.73;25.03;;;1.50;99.90;;;;;;5078159;28;20089;-73
2021/12/09 09:33:10;;;;;;;30.58;25.05;;;1.60;99.90;;;;;;5049652;28;20110;-73
2021/12/09 09:35:37;;;;;;;28.10;24.30;;;1.60;99.90;;;;;;5054591;28;20430;-73
2021/12/09 09:38:04;;;;;;;26.63;23.23;;;1.60;99.90;;;;;;5031156;28;20036;-75
2021/12/09 09:40:40;;;;;;;30.10;23.13;;;1.70;99.90;;;;;;5057726;28;20079;-73
2021/12/09 09:43:25;;;;;;;29.73;23.33;;;1.70;99.90;;;;;;5053771;28;20060;-72
2021/12/09 09:45:52;;;;;;;29.03;22.73;;;1.70;99.90;;;;;;5078748;28;20063;-73
2021/12/09 09:48:19;;;;;;;27.43;21.97;;;1.80;99.90;;;;;;5067621;28;20147;-73
2021/12/09 09:50:45;;;;;;;24.87;20.97;;;1.80;99.90;;;;;;5050983;28;20040;-73
2021/12/09 09:53:11;;;;;;;26.27;20.83;;;1.90;99.90;;;;;;5071503;28;20491;-73
2021/12/09 09:55:38;;;;;;;24.23;20.27;;;1.90;99.90;;;;;;5053930;28;20491;-73
2021/12/09 09:58:04;;;;;;;22.73;19.73;;;1.90;99.90;;;;;;5063310;28;20062;-73
2021/12/09 10:00:31;;;;;;;25.13;20.43;;;2.00;99.90;;;;;;5079363;28;20048;-73
2021/12/09 10:03:03;;;;;;;26.17;20.77;;;2.00;99.90;;;;;;5070067;28;20856;-73
2021/12/09 10:05:36;;;;;;;27.37;21.43;;;2.10;99.90;;;;;;5070997;28;20055;-73
2021/12/09 10:08:06;;;;;;;25.57;20.27;;;2.10;99.90;;;;;;5051164;28;20036;-73
2021/12/09 10:10:32;;;;;;;28.37;20.43;;;2.20;99.90;;;;;;5078132;28;20115;-73
2021/12/09 10:13:06;;;;;;;24.37;20.40;;;2.20;99.90;;;;;;5059321;28;20127;-73
2021/12/09 10:15:48;;;;;;;27.00;19.80;;;2.20;99.90;;;;;;5056564;28;20044;-73
2021/12/09 10:18:38;;;;;;;24.47;18.70;;;2.30;99.90;;;;;;5081564;28;20124;-73
2021/12/09 10:21:05;;;;;;;24.00;17.43;;;2.30;99.90;;;;;;5086087;28;20040;-73
2021/12/09 10:23:33;;;;;;;25.50;18.87;;;2.40;99.90;;;;;;5069250;28;20043;-73
2021/12/09 10:26:19;;;;;;;21.27;17.47;;;2.40;99.90;;;;;;5072705;28;20062;-73
2021/12/09 10:28:52;;;;;;;23.70;18.73;;;2.40;99.90;;;;;;5062845;28;20542;-73
2021/12/09 10:31:27;;;;;;;25.30;18.03;;;2.50;99.90;;;;;;5075154;28;20037;-73
2021/12/09 10:36:51;;;;;;;21.97;17.53;;;2.60;99.90;;;;;;5087064;28;20048;-73
2021/12/09 10:39:25;;;;;;;25.20;18.80;;;2.60;99.90;;;;;;5087259;28;20048;-73
2021/12/09 10:41:52;;;;;;;24.93;17.90;;;2.60;99.90;;;;;;5073841;28;20045;-73
2021/12/09 10:44:33;;;;;;;28.17;18.20;;;2.70;99.90;;;;;;5066183;28;20275;-73
2021/12/09 10:47:07;;;;;;;24.37;18.23;;;2.70;99.90;;;;;;5067660;28;20135;-74
2021/12/09 10:49:40;;;;;;;25.03;17.73;;;2.80;99.90;;;;;;5073988;28;20491;-75
2021/12/09 10:52:42;;;;;;;25.73;17.90;;;2.80;99.90;;;;;;5067151;28;20403;-75
2021/12/09 10:55:30;;;;;;;25.10;18.23;;;2.80;99.90;;;;;;5060564;28;20098;-74
2021/12/09 10:58:08;;;;;;;24.23;19.30;;;2.80;99.90;;;;;;5088100;28;20047;-75
2021/12/09 11:00:37;;;;;;;29.20;20.67;;;2.80;99.90;;;;;;5077611;28;20048;-75
2021/12/09 11:03:24;;;;;;;30.37;20.50;;;2.90;99.90;;;;;;5081500;28;20509;-74
2021/12/09 11:05:52;;;;;;;28.77;20.17;;;2.80;99.90;;;;;;5087814;28;20036;-75
2021/12/09 11:08:25;;;;;;;33.13;21.87;;;2.80;99.90;;;;;;5071330;28;20149;-75
2021/12/09 11:11:01;;;;;;;30.00;21.50;;;2.90;99.90;;;;;;5084650;28;20713;-74
2021/12/09 11:13:39;;;;;;;31.83;21.27;;;2.90;99.90;;;;;;5072978;28;20124;-73
2021/12/09 11:16:05;;;;;;;33.33;21.07;;;2.90;99.90;;;;;;5068295;28;20063;-73
2021/12/09 11:18:41;;;;;;;29.33;21.33;;;2.90;99.90;;;;;;5086524;28;20077;-73
2021/12/09 11:21:11;;;;;;;33.57;21.47;;;2.90;99.90;;;;;;5056615;28;20133;-73
2021/12/09 11:23:44;;;;;;;32.50;21.27;;;3.00;99.90;;;;;;5077698;28;20036;-73
2021/12/09 11:26:39;;;;;;;34.40;21.63;;;3.00;99.90;;;;;;5085010;28;20044;-73
2021/12/09 11:29:08;;;;;;;25.10;19.63;;;3.00;99.90;;;;;;5066509;28;20120;-73
2021/12/09 11:31:45;;;;;;;24.70;19.40;;;3.10;99.90;;;;;;5056433;28;20043;-73
2021/12/09 11:34:15;;;;;;;25.90;18.80;;;3.20;99.90;;;;;;5076282;28;20118;-73
2021/12/09 11:36:57;;;;;;;28.20;19.63;;;3.10;99.90;;;;;;5049174;28;20045;-73
2021/12/09 11:39:32;;;;;;;27.13;19.57;;;3.20;99.90;;;;;;5079825;28;20051;-73
2021/12/09 11:42:10;;;;;;;25.13;18.03;;;3.20;99.90;;;;;;5069706;28;20039;-73
2021/12/09 11:44:36;;;;;;;27.90;18.93;;;3.20;99.90;;;;;;5075975;28;20117;-73
2021/12/09 11:47:03;;;;;;;26.07;19.87;;;3.20;99.90;;;;;;5065029;28;20507;-73
2021/12/09 11:49:32;;;;;;;26.08;19.25;;;3.20;99.90;;;;;;5056409;28;20055;-73
2021/12/09 11:51:58;;;;;;;24.57;19.30;;;3.20;99.90;;;;;;5057471;28;20048;-73
2021/12/09 11:54:26;;;;;;;29.27;20.47;;;3.30;99.90;;;;;;5056040;28;20040;-73
2021/12/09 12:06:42;;;;;;;30.77;22.37;;;3.30;99.90;;;;;;5079406;28;20062;-75
2021/12/09 12:11:23;;;;;;;32.67;23.27;;;3.50;99.90;;;;;;5075804;28;20120;-75
2021/12/09 12:14:02;;;;;;;26.93;23.10;;;3.50;99.90;;;;;;5056528;28;20052;-75
2021/12/09 12:16:45;;;;;;;30.87;23.87;;;3.50;99.90;;;;;;5064689;28;20051;-75
2021/12/09 12:21:50;;;;;;;28.37;22.27;;;3.40;99.90;;;;;;5050859;28;20048;-76
2021/12/09 12:30:00;;;;;;;34.13;24.07;;;3.40;99.90;;;;;;5072818;28;20387;-75
2021/12/09 12:38:13;;;;;;;32.13;23.20;;;3.50;99.90;;;;;;5076247;28;20060;-76
2021/12/09 12:40:57;;;;;;;29.17;23.03;;;3.50;99.90;;;;;;5084806;28;20050;-75
2021/12/09 12:43:35;;;;;;;35.60;24.27;;;3.50;99.90;;;;;;5069496;28;20049;-75
2021/12/09 12:48:52;;;;;;;30.57;23.87;;;3.50;99.90;;;;;;5085003;28;20058;-75
2021/12/09 12:53:57;;;;;;;31.07;24.67;;;3.50;99.90;;;;;;5075977;28;20055;-75
2021/12/09 12:56:27;;;;;;;30.63;24.93;;;3.50;99.90;;;;;;5073653;28;20418;-75
2021/12/09 12:59:10;;;;;;;36.55;25.95;;;3.50;99.90;;;;;;5055370;28;20105;-75
2021/12/09 13:01:46;;;;;;;34.77;24.63;;;3.50;99.90;;;;;;5073204;28;20055;-76
2021/12/09 13:10:25;;;;;;;37.43;26.10;;;3.60;99.90;;;;;;5072089;28;20056;-76
2021/12/09 13:13:19;;;;;;;38.27;25.77;;;3.60;99.90;;;;;;5081505;28;20070;-76
2021/12/09 13:16:07;;;;;;;33.53;24.87;;;3.60;99.90;;;;;;5061168;28;20499;-75
2021/12/09 13:19:28;;;;;;;37.20;25.90;;;3.60;99.90;;;;;;5056761;28;20113;-77
2021/12/09 13:21:58;;;;;;;40.60;26.77;;;3.60;99.90;;;;;;5059615;28;20162;-76
2021/12/09 13:24:56;;;;;;;35.53;25.92;;;3.60;99.90;;;;;;5051700;28;20048;-76
2021/12/09 13:33:14;;;;;;;38.30;27.77;;;3.70;99.90;;;;;;5073574;28;20384;-75
2021/12/09 13:49:36;;;;;;;35.57;26.13;;;3.80;99.90;;;;;;5073986;28;20060;-76